createdAt,value
2019-04-06T00:00:47.085Z,16.37
2019-04-06T00:05:10.125Z,17.33
2019-04-06T00:09:27.272Z,14.50
2019-04-06T00:13:45.409Z,14.43
2019-04-06T00:18:03.151Z,14.13
2019-04-06T00:22:19.880Z,14.97
2019-04-06T00:26:36.871Z,19.23
2019-04-06T00:30:55.298Z,17.10
2019-04-06T00:35:12.197Z,22.57
2019-04-06T00:39:28.798Z,19.50
2019-04-06T00:43:50.107Z,24.07
2019-04-06T00:48:06.864Z,28.23
2019-04-06T00:52:23.447Z,40.07
2019-04-06T00:56:39.945Z,27.00
2019-04-06T01:00:56.536Z,23.43
2019-04-06T01:05:13.354Z,28.97
2019-04-06T01:09:29.986Z,30.67
2019-04-06T01:13:46.539Z,33.87
2019-04-06T01:18:03.135Z,36.43
2019-04-06T01:22:19.725Z,31.63
2019-04-06T01:26:36.333Z,22.07
2019-04-06T01:30:52.970Z,25.80
2019-04-06T01:35:09.658Z,40.70
2019-04-06T01:39:26.133Z,42.50
2019-04-06T01:43:43.026Z,26.00
2019-04-06T01:48:00.160Z,33.73
2019-04-06T01:52:16.646Z,34.93
2019-04-06T01:56:33.134Z,34.53
2019-04-06T02:00:54.532Z,27.97
2019-04-06T02:05:11.296Z,33.07
2019-04-06T02:09:27.957Z,20.77
2019-04-06T02:13:44.443Z,20.50
2019-04-06T02:18:01.030Z,32.03
2019-04-06T02:22:17.602Z,17.70
2019-04-06T02:26:34.071Z,43.93
2019-04-06T02:30:59.843Z,15.13
2019-04-06T02:35:26.869Z,31.33
2019-04-06T02:39:54.103Z,22.97
2019-04-06T02:44:10.625Z,35.20
2019-04-06T02:48:27.173Z,26.40
2019-04-06T02:52:43.773Z,21.53
2019-04-06T02:57:00.248Z,16.03
2019-04-06T03:01:17.288Z,28.63
2019-04-06T03:05:34.347Z,35.53
2019-04-06T03:09:51.518Z,20.20
2019-04-06T03:14:08.200Z,20.67
2019-04-06T03:18:24.763Z,24.60
2019-04-06T03:22:41.248Z,28.73
2019-04-06T03:27:02.278Z,20.63
2019-04-06T03:31:16.393Z,22.50
2019-04-06T03:35:33.027Z,11.50
2019-04-06T03:39:49.556Z,14.73
2019-04-06T03:44:06.239Z,15.47
2019-04-06T03:48:22.748Z,27.30
2019-04-06T03:52:39.250Z,17.40
2019-04-06T03:56:55.978Z,18.00
2019-04-06T04:01:12.532Z,16.53
2019-04-06T04:05:28.979Z,19.27
2019-04-06T04:09:45.919Z,16.53
2019-04-06T04:14:02.817Z,22.50
2019-04-06T04:18:19.613Z,10.60
2019-04-06T04:22:36.522Z,28.37
2019-04-06T04:26:53.140Z,27.43
2019-04-06T04:31:09.754Z,20.87
2019-04-06T04:35:26.612Z,11.50
2019-04-06T04:39:43.172Z,16.90
2019-04-06T04:43:59.732Z,14.13
2019-04-06T04:48:16.312Z,17.03
2019-04-06T04:52:33.111Z,25.67
2019-04-06T04:56:49.716Z,12.00
2019-04-06T05:01:06.532Z,13.37
2019-04-06T05:05:25.826Z,13.17
2019-04-06T05:09:42.327Z,20.47
2019-04-06T05:14:55.206Z,15.63
2019-04-06T05:19:11.836Z,12.97
2019-04-06T05:23:28.325Z,21.93
2019-04-06T05:27:52.060Z,20.77
2019-04-06T05:32:03.571Z,15.73
2019-04-06T05:36:20.114Z,19.77
2019-04-06T05:40:36.747Z,17.67
2019-04-06T05:44:53.254Z,12.07
2019-04-06T05:49:09.738Z,15.13
2019-04-06T05:53:26.408Z,17.23
2019-04-06T05:57:43.124Z,20.90
2019-04-06T06:01:59.625Z,16.93
2019-04-06T06:06:16.244Z,24.47
2019-04-06T06:10:34.159Z,20.80
2019-04-06T06:14:50.897Z,21.43
2019-04-06T06:19:07.430Z,23.73
2019-04-06T06:23:24.552Z,23.40
2019-04-06T06:27:41.351Z,22.23
2019-04-06T06:31:58.394Z,26.47
2019-04-06T06:36:15.021Z,22.87
2019-04-06T06:40:31.530Z,24.10
2019-04-06T06:44:48.058Z,27.40
2019-04-06T06:49:04.595Z,17.20
2019-04-06T06:53:21.114Z,28.03
2019-04-06T06:57:37.732Z,23.03
2019-04-06T07:01:54.332Z,23.07
2019-04-06T07:06:11.198Z,22.27
2019-04-06T07:10:27.766Z,17.40
2019-04-06T07:14:45.586Z,20.83
2019-04-06T07:19:02.197Z,20.70
2019-04-06T07:23:32.446Z,12.67
2019-04-06T07:27:49.221Z,29.33
2019-04-06T07:32:05.700Z,28.10
2019-04-06T07:36:22.325Z,27.33
2019-04-06T07:40:38.799Z,28.83
2019-04-06T07:44:55.723Z,30.27
2019-04-06T07:49:12.244Z,31.47
2019-04-06T07:53:28.892Z,23.63
2019-04-06T07:57:45.425Z,25.40
2019-04-06T08:02:02.146Z,26.37
2019-04-06T08:06:18.765Z,27.60
2019-04-06T08:10:35.241Z,25.80
2019-04-06T08:14:51.900Z,20.93
2019-04-06T08:19:08.797Z,23.30
2019-04-06T08:23:25.325Z,22.97
2019-04-06T08:27:42.409Z,21.07
2019-04-06T08:31:59.086Z,21.40
2019-04-06T08:36:15.810Z,20.20
2019-04-06T08:40:32.424Z,21.13
2019-04-06T08:44:49.112Z,20.77
2019-04-06T08:49:05.759Z,17.83
2019-04-06T08:53:22.288Z,20.70
2019-04-06T08:57:39.083Z,19.53
2019-04-06T09:01:55.633Z,17.70
2019-04-06T09:06:12.224Z,20.27
2019-04-06T09:10:28.744Z,21.03
2019-04-06T09:14:45.340Z,19.47
2019-04-06T09:19:01.850Z,20.60
2019-04-06T09:23:18.488Z,21.03
2019-04-06T09:27:35.602Z,20.90
2019-04-06T09:31:52.236Z,17.77
2019-04-06T09:36:08.886Z,20.30
2019-04-06T09:40:27.678Z,18.10
2019-04-06T09:44:58.276Z,19.27
2019-04-06T09:49:25.868Z,19.00
2019-04-06T09:53:47.414Z,19.43
2019-04-06T09:58:22.411Z,20.90
2019-04-06T10:02:56.639Z,18.90
2019-04-06T10:07:32.235Z,20.87
2019-04-06T10:11:58.069Z,21.07
2019-04-06T10:16:33.207Z,20.47
2019-04-06T10:21:08.482Z,18.50
2019-04-06T10:25:44.048Z,19.17
2019-04-06T10:30:19.447Z,17.50
2019-04-06T10:34:51.028Z,19.67
2019-04-06T10:39:26.171Z,19.90
2019-04-06T10:43:45.627Z,17.50
2019-04-06T10:48:22.463Z,18.17
2019-04-06T10:52:57.783Z,20.70
2019-04-06T10:57:14.408Z,19.70
2019-04-06T11:01:41.436Z,19.33
2019-04-06T11:06:00.238Z,20.57
2019-04-06T11:10:17.021Z,19.10
2019-04-06T11:14:38.752Z,18.03
2019-04-06T11:19:13.863Z,22.63
2019-04-06T11:23:33.370Z,23.33
2019-04-06T11:27:51.947Z,22.87
2019-04-06T11:32:10.375Z,20.57
2019-04-06T11:36:46.980Z,21.10
2019-04-06T11:41:09.959Z,19.80
2019-04-06T11:45:28.497Z,18.33
2019-04-06T11:49:59.482Z,20.83
2019-04-06T11:54:27.890Z,18.97
2019-04-06T11:58:48.915Z,19.17
2019-04-06T12:03:05.686Z,16.27
2019-04-06T12:07:37.341Z,18.97
2019-04-06T12:12:01.781Z,19.77
2019-04-06T12:16:33.682Z,19.13
2019-04-06T12:20:58.154Z,20.23
2019-04-06T12:25:25.965Z,18.33
2019-04-06T12:30:01.123Z,19.60
2019-04-06T12:34:19.795Z,19.77
2019-04-06T12:38:38.305Z,21.13
2019-04-06T12:42:54.897Z,18.90
2019-04-06T12:47:31.748Z,19.80
2019-04-06T12:51:50.215Z,17.73
2019-04-06T12:56:08.679Z,16.50
2019-04-06T13:00:31.258Z,15.03
2019-04-06T13:04:47.725Z,15.60
2019-04-06T13:09:24.719Z,18.67
2019-04-06T13:13:55.643Z,13.65
2019-04-06T13:18:28.153Z,14.10
2019-04-06T13:22:56.520Z,21.35
2019-04-06T13:27:32.636Z,19.60
2019-04-06T13:32:04.648Z,24.63
2019-04-06T13:36:21.211Z,22.20
2019-04-06T13:40:41.563Z,21.47
2019-04-06T13:45:03.797Z,19.40
2019-04-06T13:49:25.179Z,18.63
2019-04-06T13:53:47.604Z,16.67
2019-04-06T13:58:14.974Z,17.47
2019-04-06T14:02:31.890Z,15.73
2019-04-06T14:06:53.615Z,22.17
2019-04-06T14:11:12.065Z,24.10
2019-04-06T14:15:37.584Z,17.87
2019-04-06T14:20:10.763Z,20.33
2019-04-06T14:24:44.435Z,17.10
2019-04-06T14:29:01.934Z,15.87
2019-04-06T14:33:32.962Z,18.13
2019-04-06T14:37:54.124Z,13.30
2019-04-06T14:42:12.758Z,10.83
2019-04-06T14:46:41.931Z,10.67
2019-04-06T14:51:04.766Z,9.60
2019-04-06T14:55:32.415Z,10.70
2019-04-06T14:59:52.064Z,6.83
2019-04-06T15:04:16.697Z,8.97
2019-04-06T15:08:42.349Z,9.03
2019-04-06T15:13:11.018Z,11.70
2019-04-06T15:17:31.058Z,13.23
2019-04-06T15:21:48.048Z,14.40
2019-04-06T15:26:13.342Z,14.87
2019-04-06T15:30:34.774Z,13.00
2019-04-06T15:34:55.343Z,525.37
2019-04-06T15:39:31.077Z,927.87
2019-04-06T15:44:06.085Z,354.47
2019-04-06T15:48:37.015Z,89.97
2019-04-06T15:52:50.422Z,32.27
2019-04-06T15:57:09.263Z,79.23
2019-04-06T16:01:43.411Z,18.57
2019-04-06T16:06:04.981Z,11.37
2019-04-06T16:10:39.405Z,12.67
2019-04-06T16:14:55.959Z,23.73
2019-04-06T16:19:14.404Z,11.20
2019-04-06T16:23:35.890Z,11.60
2019-04-06T16:27:56.840Z,10.77
2019-04-06T16:32:34.265Z,12.87
2019-04-06T16:36:55.598Z,9.30
2019-04-06T16:41:14.185Z,11.37
2019-04-06T16:45:43.415Z,8.37
2019-04-06T16:50:02.223Z,10.83
2019-04-06T16:54:30.381Z,9.13
2019-04-06T16:58:49.235Z,8.97
2019-04-06T17:03:06.723Z,9.27
2019-04-06T17:07:31.567Z,6.23
2019-04-06T17:12:06.547Z,5.47
2019-04-06T17:16:38.649Z,5.73
2019-04-06T17:20:58.901Z,4.77
2019-04-06T17:25:27.773Z,4.40
2019-04-06T17:29:55.572Z,4.33
2019-04-06T17:34:15.451Z,4.73
2019-04-06T17:38:38.417Z,4.97
2019-04-06T17:43:22.559Z,5.23
2019-04-06T17:47:42.871Z,6.20
2019-04-06T17:52:07.506Z,5.20
2019-04-06T17:56:24.382Z,8.50
2019-04-06T18:00:56.252Z,8.30
2019-04-06T18:05:12.988Z,9.47
2019-04-06T18:09:34.475Z,7.07
2019-04-06T18:13:52.545Z,7.90
2019-04-06T18:18:09.832Z,11.30
2019-04-06T18:22:26.710Z,8.97
2019-04-06T18:26:43.342Z,9.73
2019-04-06T18:31:20.248Z,9.10
2019-04-06T18:35:37.222Z,13.37
2019-04-06T18:39:55.796Z,11.77
2019-04-06T18:44:12.348Z,12.47
2019-04-06T18:48:29.278Z,15.47
2019-04-06T18:52:46.468Z,15.00
2019-04-06T18:57:03.517Z,14.00
2019-04-06T19:01:20.363Z,15.27
2019-04-06T19:05:37.098Z,14.90
2019-04-06T19:09:53.793Z,11.10
2019-04-06T19:14:11.125Z,11.70
2019-04-06T19:18:27.731Z,10.70
2019-04-06T19:22:46.796Z,12.03
2019-04-06T19:27:05.643Z,8.67
2019-04-06T19:31:23.702Z,7.53
2019-04-06T19:35:40.794Z,7.47
2019-04-06T19:39:58.085Z,8.50
2019-04-06T19:44:16.141Z,9.50
2019-04-06T19:48:32.652Z,8.00
2019-04-06T19:52:49.544Z,15.30
2019-04-06T19:57:06.215Z,10.77
2019-04-06T20:01:22.851Z,11.83
2019-04-06T20:05:40.141Z,10.37
2019-04-06T20:09:57.959Z,8.60
2019-04-06T20:14:14.913Z,8.37
2019-04-06T20:18:31.574Z,8.57
2019-04-06T20:22:48.150Z,8.27
2019-04-06T20:27:04.889Z,7.20
2019-04-06T20:31:21.430Z,7.73
2019-04-06T20:35:38.348Z,8.37
2019-04-06T20:39:55.769Z,9.43
2019-04-06T20:44:12.384Z,9.43
2019-04-06T20:48:29.380Z,8.00
2019-04-06T20:52:46.066Z,8.33
2019-04-06T20:57:03.305Z,9.40
2019-04-06T21:01:19.868Z,7.30
2019-04-06T21:05:36.388Z,7.90
2019-04-06T21:09:52.991Z,7.67
2019-04-06T21:14:10.031Z,7.47
2019-04-06T21:18:26.610Z,6.20
2019-04-06T21:22:43.680Z,6.30
2019-04-06T21:27:00.299Z,7.23
2019-04-06T21:31:16.740Z,6.47
2019-04-06T21:35:33.565Z,7.87
2019-04-06T21:39:50.121Z,6.80
2019-04-06T21:44:06.624Z,6.80
2019-04-06T21:48:23.175Z,6.33
2019-04-06T21:52:39.612Z,6.03
2019-04-06T21:56:56.047Z,6.50
2019-04-06T22:01:15.809Z,5.67
2019-04-06T22:05:32.952Z,7.00
2019-04-06T22:09:50.411Z,6.87
2019-04-06T22:14:07.041Z,5.90
2019-04-06T22:18:23.574Z,6.23
2019-04-06T22:22:40.453Z,5.53
2019-04-06T22:26:57.441Z,6.20
2019-04-06T22:31:14.247Z,4.50
2019-04-06T22:35:31.243Z,5.20
2019-04-06T22:39:47.997Z,5.10
2019-04-06T22:44:05.661Z,4.90
2019-04-06T22:48:25.346Z,4.97
2019-04-06T22:52:42.337Z,4.93
2019-04-06T22:56:59.118Z,4.63
2019-04-06T23:01:17.565Z,5.03
2019-04-06T23:05:34.012Z,5.73
2019-04-06T23:09:50.569Z,4.93
2019-04-06T23:14:07.416Z,4.40
2019-04-06T23:18:24.027Z,5.07
2019-04-06T23:22:40.911Z,5.33
2019-04-06T23:26:57.850Z,4.37
2019-04-06T23:31:14.828Z,4.90
2019-04-06T23:35:31.817Z,5.53
2019-04-06T23:39:48.291Z,5.10
2019-04-06T23:44:04.934Z,6.20
2019-04-06T23:48:21.946Z,6.37
2019-04-06T23:52:38.402Z,5.30
2019-04-06T23:56:54.877Z,4.93
